Decoded Metar for KFOK (WEST HAMPTON BEACH in NY, USA) (IATA:FOK) | Meteo·Mobile Aviation Weather
aviador You're here:

KFOK Decoded Metar

WEST HAMPTON BEACH in NY, USA
Report Time2018-12-17 13:53:00
UTC Time2018-12-17 14:00:35
Flight Rules mvfr MVFR
Wind300° at 09 kt
W.Decomp.*RWY 33: 8.6 kt HW 2.6 kt LCW
RWY 01: 4.9 kt HW 7.5 kt LCW
RWY 24: 2.6 kt HW 8.6 kt RCW
W.Rank300° ranks 10
Current wind is below 300° avg. (10.5)
Visibility9999 m
Phenomena:N/A
Clouds:Overcast 017 Hf
Expected CloudBase > 800 ft AGL from Temp-Dew spread
Ceiling1,700 ft
Temp04°C (ISA -11)
Dew Point02°C (87% RH)
AAT-0.9°C
QNH1007 hPa
Density Alt-896 ft
Elevation108 ft
Report Wrong Elevation
Raw Report
METAR KFOK 171353Z 30009KT 10SM OVC017 04/02 A2974 RMK AO2 SLP070
T00390017=

Extra information for KFOK:More info

Metar Taf Metar & Taf Last 4 Metars F.Rules Stats Wind Profile Meteogram Temp Stats Airport Information Weather charts Add Link Nearby VenuesMetar ALERT Operation Metar Decoded Social comments

AIRNAV info for KFOK